sensor_id;sensor_type;location;lat;lon;timestamp;temperature;humidity
41262;DHT22;29629;52.532;13.352;2022-09-24T00:00:39;13.00;99.90
41262;DHT22;29629;52.532;13.352;2022-09-24T00:03:06;12.90;99.90
41262;DHT22;29629;52.532;13.352;2022-09-24T00:05:36;12.90;99.90
41262;DHT22;29629;52.532;13.352;2022-09-24T00:08:04;12.90;99.90
41262;DHT22;29629;52.532;13.352;2022-09-24T00:10:35;12.90;99.90
41262;DHT22;29629;52.532;13.352;2022-09-24T00:13:04;12.80;99.90
41262;DHT22;29629;52.532;13.352;2022-09-24T00:15:35;12.90;99.90
41262;DHT22;29629;52.532;13.352;2022-09-24T00:18:01;12.80;99.90
41262;DHT22;29629;52.532;13.352;2022-09-24T00:20:29;12.80;99.90
41262;DHT22;29629;52.532;13.352;2022-09-24T00:22:56;12.80;99.90
41262;DHT22;29629;52.532;13.352;2022-09-24T00:25:23;12.80;99.90
41262;DHT22;29629;52.532;13.352;2022-09-24T00:28:09;12.70;99.90
41262;DHT22;29629;52.532;13.352;2022-09-24T00:30:37;12.70;99.90
41262;DHT22;29629;52.532;13.352;2022-09-24T00:33:04;12.70;99.90
41262;DHT22;29629;52.532;13.352;2022-09-24T00:35:32;12.70;99.90
41262;DHT22;29629;52.532;13.352;2022-09-24T00:38:00;12.70;99.90
41262;DHT22;29629;52.532;13.352;2022-09-24T00:40:27;12.70;99.90
41262;DHT22;29629;52.532;13.352;2022-09-24T00:42:54;12.70;99.90
41262;DHT22;29629;52.532;13.352;2022-09-24T00:45:22;12.70;99.90
41262;DHT22;29629;52.532;13.352;2022-09-24T00:47:50;12.60;99.90
41262;DHT22;29629;52.532;13.352;2022-09-24T00:50:21;12.60;99.90
41262;DHT22;29629;52.532;13.352;2022-09-24T00:52:52;12.50;99.90
41262;DHT22;29629;52.532;13.352;2022-09-24T00:55:21;12.60;99.90
41262;DHT22;29629;52.532;13.352;2022-09-24T00:57:51;12.50;99.90
41262;DHT22;29629;52.532;13.352;2022-09-24T01:00:18;12.50;99.90
41262;DHT22;29629;52.532;13.352;2022-09-24T01:02:50;12.50;99.90
41262;DHT22;29629;52.532;13.352;2022-09-24T01:05:19;12.50;99.90
41262;DHT22;29629;52.532;13.352;2022-09-24T01:07:46;12.40;99.90
41262;DHT22;29629;52.532;13.352;2022-09-24T01:10:13;12.50;99.90
41262;DHT22;29629;52.532;13.352;2022-09-24T01:13:08;12.40;99.90
41262;DHT22;29629;52.532;13.352;2022-09-24T01:15:44;12.40;99.90
41262;DHT22;29629;52.532;13.352;2022-09-24T01:18:19;12.40;99.90
41262;DHT22;29629;52.532;13.352;2022-09-24T01:20:56;12.40;99.90
41262;DHT22;29629;52.532;13.352;2022-09-24T01:23:41;12.40;99.90
41262;DHT22;29629;52.532;13.352;2022-09-24T01:26:18;12.50;99.90
41262;DHT22;29629;52.532;13.352;2022-09-24T01:28:59;12.50;99.90
41262;DHT22;29629;52.532;13.352;2022-09-24T01:31:34;12.50;99.90
41262;DHT22;29629;52.532;13.352;2022-09-24T01:34:04;12.40;99.90
41262;DHT22;29629;52.532;13.352;2022-09-24T01:36:32;12.50;99.90
41262;DHT22;29629;52.532;13.352;2022-09-24T01:39:01;12.40;99.90
41262;DHT22;29629;52.532;13.352;2022-09-24T01:41:30;12.40;99.90
41262;DHT22;29629;52.532;13.352;2022-09-24T01:43:59;12.50;99.90
41262;DHT22;29629;52.532;13.352;2022-09-24T01:46:29;12.50;99.90
41262;DHT22;29629;52.532;13.352;2022-09-24T01:48:58;12.50;99.90
41262;DHT22;29629;52.532;13.352;2022-09-24T01:51:27;12.40;99.90
41262;DHT22;29629;52.532;13.352;2022-09-24T01:54:00;12.50;99.90
41262;DHT22;29629;52.532;13.352;2022-09-24T01:56:33;12.50;99.90
41262;DHT22;29629;52.532;13.352;2022-09-24T01:59:09;12.50;99.90
41262;DHT22;29629;52.532;13.352;2022-09-24T02:01:42;12.40;99.90
41262;DHT22;29629;52.532;13.352;2022-09-24T02:04:15;12.50;99.90
41262;DHT22;29629;52.532;13.352;2022-09-24T02:06:45;12.40;99.90
41262;DHT22;29629;52.532;13.352;2022-09-24T02:09:31;12.50;99.90
41262;DHT22;29629;52.532;13.352;2022-09-24T02:12:02;12.50;99.90
41262;DHT22;29629;52.532;13.352;2022-09-24T02:14:36;12.40;99.90
41262;DHT22;29629;52.532;13.352;2022-09-24T02:17:06;12.50;99.90
41262;DHT22;29629;52.532;13.352;2022-09-24T02:19:36;12.40;99.90
41262;DHT22;29629;52.532;13.352;2022-09-24T02:22:05;12.50;99.90
41262;DHT22;29629;52.532;13.352;2022-09-24T02:24:38;12.40;99.90
41262;DHT22;29629;52.532;13.352;2022-09-24T02:27:06;12.50;99.90
41262;DHT22;29629;52.532;13.352;2022-09-24T02:29:32;12.50;99.90
41262;DHT22;29629;52.532;13.352;2022-09-24T02:32:01;12.40;99.90
41262;DHT22;29629;52.532;13.352;2022-09-24T02:34:33;12.50;99.90
41262;DHT22;29629;52.532;13.352;2022-09-24T02:37:05;12.40;99.90
41262;DHT22;29629;52.532;13.352;2022-09-24T02:39:33;12.50;99.90
41262;DHT22;29629;52.532;13.352;2022-09-24T02:42:01;12.50;99.90
41262;DHT22;29629;52.532;13.352;2022-09-24T02:44:29;12.50;99.90
41262;DHT22;29629;52.532;13.352;2022-09-24T02:46:56;12.50;99.90
41262;DHT22;29629;52.532;13.352;2022-09-24T02:49:23;12.50;99.90
41262;DHT22;29629;52.532;13.352;2022-09-24T02:51:50;12.50;99.90
41262;DHT22;29629;52.532;13.352;2022-09-24T02:54:18;12.40;99.90
41262;DHT22;29629;52.532;13.352;2022-09-24T02:56:46;12.40;99.90
41262;DHT22;29629;52.532;13.352;2022-09-24T02:59:13;12.40;99.90
41262;DHT22;29629;52.532;13.352;2022-09-24T03:01:39;12.30;99.90
41262;DHT22;29629;52.532;13.352;2022-09-24T03:04:06;12.40;99.90
41262;DHT22;29629;52.532;13.352;2022-09-24T03:06:33;12.50;99.90
41262;DHT22;29629;52.532;13.352;2022-09-24T03:09:01;12.40;99.90
41262;DHT22;29629;52.532;13.352;2022-09-24T03:11:30;12.30;99.90
41262;DHT22;29629;52.532;13.352;2022-09-24T03:13:58;12.50;99.90
41262;DHT22;29629;52.532;13.352;2022-09-24T03:16:25;12.50;99.90
41262;DHT22;29629;52.532;13.352;2022-09-24T03:18:52;12.40;99.90
41262;DHT22;29629;52.532;13.352;2022-09-24T03:21:20;12.40;99.90
41262;DHT22;29629;52.532;13.352;2022-09-24T03:23:47;12.40;99.90
41262;DHT22;29629;52.532;13.352;2022-09-24T03:26:14;12.40;99.90
41262;DHT22;29629;52.532;13.352;2022-09-24T03:28:43;12.40;99.90
41262;DHT22;29629;52.532;13.352;2022-09-24T03:31:10;12.40;99.90
41262;DHT22;29629;52.532;13.352;2022-09-24T03:33:38;12.40;99.90
41262;DHT22;29629;52.532;13.352;2022-09-24T03:36:08;12.30;99.90
41262;DHT22;29629;52.532;13.352;2022-09-24T03:38:36;12.40;99.90
41262;DHT22;29629;52.532;13.352;2022-09-24T03:41:04;12.40;99.90
41262;DHT22;29629;52.532;13.352;2022-09-24T03:43:32;12.40;99.90
41262;DHT22;29629;52.532;13.352;2022-09-24T03:46:01;12.30;99.90
41262;DHT22;29629;52.532;13.352;2022-09-24T03:48:28;12.40;99.90
41262;DHT22;29629;52.532;13.352;2022-09-24T03:50:55;12.30;99.90
41262;DHT22;29629;52.532;13.352;2022-09-24T03:53:22;12.30;99.90
41262;DHT22;29629;52.532;13.352;2022-09-24T03:55:53;12.30;99.90
41262;DHT22;29629;52.532;13.352;2022-09-24T03:58:20;12.30;99.90
41262;DHT22;29629;52.532;13.352;2022-09-24T04:00:47;12.30;99.90
41262;DHT22;29629;52.532;13.352;2022-09-24T04:03:15;12.30;99.90
41262;DHT22;29629;52.532;13.352;2022-09-24T04:05:41;12.30;99.90
41262;DHT22;29629;52.532;13.352;2022-09-24T04:08:08;12.30;99.90
41262;DHT22;29629;52.532;13.352;2022-09-24T04:10:35;12.30;99.90
41262;DHT22;29629;52.532;13.352;2022-09-24T04:13:02;12.30;99.90
41262;DHT22;29629;52.532;13.352;2022-09-24T04:15:29;12.30;99.90
41262;DHT22;29629;52.532;13.352;2022-09-24T04:17:57;12.30;99.90
41262;DHT22;29629;52.532;13.352;2022-09-24T04:20:27;12.30;99.90
41262;DHT22;29629;52.532;13.352;2022-09-24T04:22:56;12.30;99.90
41262;DHT22;29629;52.532;13.352;2022-09-24T04:25:24;12.30;99.90
41262;DHT22;29629;52.532;13.352;2022-09-24T04:27:52;12.20;99.90
41262;DHT22;29629;52.532;13.352;2022-09-24T04:30:19;12.30;99.90
41262;DHT22;29629;52.532;13.352;2022-09-24T04:32:46;12.30;99.90
41262;DHT22;29629;52.532;13.352;2022-09-24T04:35:15;12.20;99.90
41262;DHT22;29629;52.532;13.352;2022-09-24T04:37:44;12.30;99.90
41262;DHT22;29629;52.532;13.352;2022-09-24T04:40:11;12.20;99.90
41262;DHT22;29629;52.532;13.352;2022-09-24T04:42:39;12.20;99.90
41262;DHT22;29629;52.532;13.352;2022-09-24T04:45:07;12.20;99.90
41262;DHT22;29629;52.532;13.352;2022-09-24T04:47:35;12.10;99.90
41262;DHT22;29629;52.532;13.352;2022-09-24T04:50:06;12.20;99.90
41262;DHT22;29629;52.532;13.352;2022-09-24T04:52:33;12.10;99.90
41262;DHT22;29629;52.532;13.352;2022-09-24T04:55:02;12.10;99.90
41262;DHT22;29629;52.532;13.352;2022-09-24T04:57:29;12.10;99.90
41262;DHT22;29629;52.532;13.352;2022-09-24T05:00:01;12.20;99.90
41262;DHT22;29629;52.532;13.352;2022-09-24T05:02:28;12.20;99.90
41262;DHT22;29629;52.532;13.352;2022-09-24T05:04:55;12.10;99.90
41262;DHT22;29629;52.532;13.352;2022-09-24T05:07:22;12.10;99.90
41262;DHT22;29629;52.532;13.352;2022-09-24T05:09:49;12.20;99.90
41262;DHT22;29629;52.532;13.352;2022-09-24T05:12:17;12.20;99.90
41262;DHT22;29629;52.532;13.352;2022-09-24T05:14:45;12.20;99.90
41262;DHT22;29629;52.532;13.352;2022-09-24T05:17:12;12.20;99.90
41262;DHT22;29629;52.532;13.352;2022-09-24T05:19:39;12.20;99.90
41262;DHT22;29629;52.532;13.352;2022-09-24T05:22:06;12.20;99.90
41262;DHT22;29629;52.532;13.352;2022-09-24T05:24:33;12.20;99.90
41262;DHT22;29629;52.532;13.352;2022-09-24T05:27:00;12.20;99.90
41262;DHT22;29629;52.532;13.352;2022-09-24T05:29:37;12.20;99.90
41262;DHT22;29629;52.532;13.352;2022-09-24T05:32:05;12.20;99.90
41262;DHT22;29629;52.532;13.352;2022-09-24T05:34:32;12.20;99.90
41262;DHT22;29629;52.532;13.352;2022-09-24T05:36:59;12.20;99.90
41262;DHT22;29629;52.532;13.352;2022-09-24T05:39:27;12.30;99.90
41262;DHT22;29629;52.532;13.352;2022-09-24T05:41:54;12.20;99.90
41262;DHT22;29629;52.532;13.352;2022-09-24T05:44:21;12.20;99.90
41262;DHT22;29629;52.532;13.352;2022-09-24T05:46:50;12.30;99.90
41262;DHT22;29629;52.532;13.352;2022-09-24T05:49:17;12.30;99.90
41262;DHT22;29629;52.532;13.352;2022-09-24T05:51:46;12.30;99.90
41262;DHT22;29629;52.532;13.352;2022-09-24T05:54:13;12.40;99.90
41262;DHT22;29629;52.532;13.352;2022-09-24T05:56:40;12.40;99.90
41262;DHT22;29629;52.532;13.352;2022-09-24T05:59:07;12.40;99.90
41262;DHT22;29629;52.532;13.352;2022-09-24T06:01:34;12.40;99.90
41262;DHT22;29629;52.532;13.352;2022-09-24T06:04:02;12.40;99.90
41262;DHT22;29629;52.532;13.352;2022-09-24T06:06:29;12.40;99.90
41262;DHT22;29629;52.532;13.352;2022-09-24T06:08:56;12.40;99.90
41262;DHT22;29629;52.532;13.352;2022-09-24T06:11:22;12.40;99.90
41262;DHT22;29629;52.532;13.352;2022-09-24T06:13:50;12.50;99.90
41262;DHT22;29629;52.532;13.352;2022-09-24T06:16:17;12.30;99.90
41262;DHT22;29629;52.532;13.352;2022-09-24T06:18:45;12.40;99.90
41262;DHT22;29629;52.532;13.352;2022-09-24T06:21:14;12.30;99.90
41262;DHT22;29629;52.532;13.352;2022-09-24T06:23:42;12.40;99.90
41262;DHT22;29629;52.532;13.352;2022-09-24T06:26:12;12.40;99.90
41262;DHT22;29629;52.532;13.352;2022-09-24T06:28:39;12.40;99.90
41262;DHT22;29629;52.532;13.352;2022-09-24T06:31:07;12.50;99.90
41262;DHT22;29629;52.532;13.352;2022-09-24T06:33:36;12.60;99.90
41262;DHT22;29629;52.532;13.352;2022-09-24T06:36:03;12.60;99.90
41262;DHT22;29629;52.532;13.352;2022-09-24T06:38:31;12.70;99.90
41262;DHT22;29629;52.532;13.352;2022-09-24T06:41:00;12.70;99.90
41262;DHT22;29629;52.532;13.352;2022-09-24T06:43:28;12.70;99.90
41262;DHT22;29629;52.532;13.352;2022-09-24T06:45:55;12.80;99.90
41262;DHT22;29629;52.532;13.352;2022-09-24T06:48:22;13.00;99.90
41262;DHT22;29629;52.532;13.352;2022-09-24T06:50:50;13.10;99.90
41262;DHT22;29629;52.532;13.352;2022-09-24T06:53:17;13.10;99.90
41262;DHT22;29629;52.532;13.352;2022-09-24T06:55:45;13.10;99.90
41262;DHT22;29629;52.532;13.352;2022-09-24T06:58:14;13.10;99.90
41262;DHT22;29629;52.532;13.352;2022-09-24T07:00:41;13.10;99.90
41262;DHT22;29629;52.532;13.352;2022-09-24T07:03:13;13.10;99.90
41262;DHT22;29629;52.532;13.352;2022-09-24T07:05:40;13.20;99.90
41262;DHT22;29629;52.532;13.352;2022-09-24T07:08:07;13.10;99.90
41262;DHT22;29629;52.532;13.352;2022-09-24T07:10:34;13.10;99.90
41262;DHT22;29629;52.532;13.352;2022-09-24T07:13:03;13.10;99.90
41262;DHT22;29629;52.532;13.352;2022-09-24T07:15:30;13.00;99.90
41262;DHT22;29629;52.532;13.352;2022-09-24T07:17:57;13.10;99.90
41262;DHT22;29629;52.532;13.352;2022-09-24T07:20:24;13.10;99.90
41262;DHT22;29629;52.532;13.352;2022-09-24T07:22:52;13.10;99.90
41262;DHT22;29629;52.532;13.352;2022-09-24T07:25:19;13.10;99.90
41262;DHT22;29629;52.532;13.352;2022-09-24T07:27:46;13.00;99.90
41262;DHT22;29629;52.532;13.352;2022-09-24T07:30:15;13.10;99.90
41262;DHT22;29629;52.532;13.352;2022-09-24T07:32:41;13.10;99.90
41262;DHT22;29629;52.532;13.352;2022-09-24T07:35:08;13.20;99.90
41262;DHT22;29629;52.532;13.352;2022-09-24T07:37:35;13.20;99.90
41262;DHT22;29629;52.532;13.352;2022-09-24T07:40:02;13.30;99.90
41262;DHT22;29629;52.532;13.352;2022-09-24T07:42:31;13.20;99.90
41262;DHT22;29629;52.532;13.352;2022-09-24T07:44:58;13.20;99.90
41262;DHT22;29629;52.532;13.352;2022-09-24T07:47:27;13.20;99.90
41262;DHT22;29629;52.532;13.352;2022-09-24T07:49:53;13.20;99.90
41262;DHT22;29629;52.532;13.352;2022-09-24T07:52:20;13.20;99.90
41262;DHT22;29629;52.532;13.352;2022-09-24T07:54:47;13.20;99.90
41262;DHT22;29629;52.532;13.352;2022-09-24T07:57:14;13.20;99.90
41262;DHT22;29629;52.532;13.352;2022-09-24T07:59:41;13.20;99.90
41262;DHT22;29629;52.532;13.352;2022-09-24T08:02:14;13.20;99.90
41262;DHT22;29629;52.532;13.352;2022-09-24T08:04:43;13.20;99.90
41262;DHT22;29629;52.532;13.352;2022-09-24T08:07:10;13.30;99.90
41262;DHT22;29629;52.532;13.352;2022-09-24T08:09:37;13.30;99.90
41262;DHT22;29629;52.532;13.352;2022-09-24T08:12:04;13.40;99.90
41262;DHT22;29629;52.532;13.352;2022-09-24T08:14:32;13.50;99.90
41262;DHT22;29629;52.532;13.352;2022-09-24T08:16:59;13.50;99.90
41262;DHT22;29629;52.532;13.352;2022-09-24T08:19:27;13.50;99.90
41262;DHT22;29629;52.532;13.352;2022-09-24T08:21:56;13.60;99.90
41262;DHT22;29629;52.532;13.352;2022-09-24T08:24:23;13.60;99.90
41262;DHT22;29629;52.532;13.352;2022-09-24T08:26:50;13.70;99.90
41262;DHT22;29629;52.532;13.352;2022-09-24T08:29:17;13.80;99.90
41262;DHT22;29629;52.532;13.352;2022-09-24T08:31:43;13.80;99.90
41262;DHT22;29629;52.532;13.352;2022-09-24T08:34:10;13.90;99.90
41262;DHT22;29629;52.532;13.352;2022-09-24T08:36:37;14.00;99.90
41262;DHT22;29629;52.532;13.352;2022-09-24T08:39:05;14.00;99.90
41262;DHT22;29629;52.532;13.352;2022-09-24T08:41:49;14.10;99.90
41262;DHT22;29629;52.532;13.352;2022-09-24T08:44:21;14.20;99.90
41262;DHT22;29629;52.532;13.352;2022-09-24T08:47:10;14.30;99.90
41262;DHT22;29629;52.532;13.352;2022-09-24T08:49:59;14.50;99.90
41262;DHT22;29629;52.532;13.352;2022-09-24T08:52:43;14.60;99.90
41262;DHT22;29629;52.532;13.352;2022-09-24T08:55:17;14.80;99.90
41262;DHT22;29629;52.532;13.352;2022-09-24T08:57:58;14.90;99.90
41262;DHT22;29629;52.532;13.352;2022-09-24T09:00:26;15.00;99.90
41262;DHT22;29629;52.532;13.352;2022-09-24T09:03:00;15.10;99.90
41262;DHT22;29629;52.532;13.352;2022-09-24T09:05:48;15.20;99.90
41262;DHT22;29629;52.532;13.352;2022-09-24T09:08:22;15.40;99.90
41262;DHT22;29629;52.532;13.352;2022-09-24T09:10:58;15.50;99.90
41262;DHT22;29629;52.532;13.352;2022-09-24T09:13:29;15.70;99.90
41262;DHT22;29629;52.532;13.352;2022-09-24T09:16:03;15.90;99.90
41262;DHT22;29629;52.532;13.352;2022-09-24T09:18:34;16.10;99.90
41262;DHT22;29629;52.532;13.352;2022-09-24T09:21:14;16.20;99.90
41262;DHT22;29629;52.532;13.352;2022-09-24T09:23:46;16.30;99.90
41262;DHT22;29629;52.532;13.352;2022-09-24T09:26:16;16.20;99.90
41262;DHT22;29629;52.532;13.352;2022-09-24T09:28:45;16.10;99.90
41262;DHT22;29629;52.532;13.352;2022-09-24T09:31:19;16.10;99.90
41262;DHT22;29629;52.532;13.352;2022-09-24T09:34:00;16.20;99.90
41262;DHT22;29629;52.532;13.352;2022-09-24T09:36:43;16.30;99.90
41262;DHT22;29629;52.532;13.352;2022-09-24T09:39:26;16.50;99.90
41262;DHT22;29629;52.532;13.352;2022-09-24T09:42:01;16.50;99.90
41262;DHT22;29629;52.532;13.352;2022-09-24T09:44:30;16.30;99.90
41262;DHT22;29629;52.532;13.352;2022-09-24T09:47:08;16.20;99.90
41262;DHT22;29629;52.532;13.352;2022-09-24T09:49:38;16.10;99.90
41262;DHT22;29629;52.532;13.352;2022-09-24T09:52:12;15.90;99.90
41262;DHT22;29629;52.532;13.352;2022-09-24T09:54:39;16.00;99.90
41262;DHT22;29629;52.532;13.352;2022-09-24T09:57:13;16.00;99.90
41262;DHT22;29629;52.532;13.352;2022-09-24T09:59:45;16.00;99.90
41262;DHT22;29629;52.532;13.352;2022-09-24T10:02:20;15.90;99.90
41262;DHT22;29629;52.532;13.352;2022-09-24T10:04:51;15.80;99.90
41262;DHT22;29629;52.532;13.352;2022-09-24T10:07:18;15.80;99.90
41262;DHT22;29629;52.532;13.352;2022-09-24T10:09:45;15.80;99.90
41262;DHT22;29629;52.532;13.352;2022-09-24T10:12:16;15.90;99.90
41262;DHT22;29629;52.532;13.352;2022-09-24T10:14:56;16.10;99.90
41262;DHT22;29629;52.532;13.352;2022-09-24T10:17:26;16.30;99.90
41262;DHT22;29629;52.532;13.352;2022-09-24T10:19:54;16.20;99.90
41262;DHT22;29629;52.532;13.352;2022-09-24T10:22:23;16.10;99.90
41262;DHT22;29629;52.532;13.352;2022-09-24T10:24:52;16.10;99.90
41262;DHT22;29629;52.532;13.352;2022-09-24T10:27:28;16.20;99.90
41262;DHT22;29629;52.532;13.352;2022-09-24T10:29:56;16.20;99.90
41262;DHT22;29629;52.532;13.352;2022-09-24T10:32:41;16.00;99.90
41262;DHT22;29629;52.532;13.352;2022-09-24T10:35:21;16.00;99.90
41262;DHT22;29629;52.532;13.352;2022-09-24T10:37:52;16.00;99.90
41262;DHT22;29629;52.532;13.352;2022-09-24T10:40:22;16.00;99.90
41262;DHT22;29629;52.532;13.352;2022-09-24T10:42:59;16.10;99.90
41262;DHT22;29629;52.532;13.352;2022-09-24T10:45:58;16.10;99.90
41262;DHT22;29629;52.532;13.352;2022-09-24T10:48:34;16.20;99.90
41262;DHT22;29629;52.532;13.352;2022-09-24T10:51:13;16.20;99.90
41262;DHT22;29629;52.532;13.352;2022-09-24T10:53:48;16.00;99.90
41262;DHT22;29629;52.532;13.352;2022-09-24T10:56:24;16.10;99.90
41262;DHT22;29629;52.532;13.352;2022-09-24T10:59:11;16.10;99.90
41262;DHT22;29629;52.532;13.352;2022-09-24T11:01:47;16.10;99.90
41262;DHT22;29629;52.532;13.352;2022-09-24T11:04:33;16.20;99.90
41262;DHT22;29629;52.532;13.352;2022-09-24T11:07:46;16.30;99.90
41262;DHT22;29629;52.532;13.352;2022-09-24T11:10:22;16.30;99.90
41262;DHT22;29629;52.532;13.352;2022-09-24T11:13:01;16.50;99.90
41262;DHT22;29629;52.532;13.352;2022-09-24T11:15:49;16.70;99.90
41262;DHT22;29629;52.532;13.352;2022-09-24T11:18:29;16.90;99.90
41262;DHT22;29629;52.532;13.352;2022-09-24T11:21:10;17.00;99.90
41262;DHT22;29629;52.532;13.352;2022-09-24T11:24:00;17.00;99.90
41262;DHT22;29629;52.532;13.352;2022-09-24T11:26:44;17.20;99.90
41262;DHT22;29629;52.532;13.352;2022-09-24T11:29:46;17.40;99.90
41262;DHT22;29629;52.532;13.352;2022-09-24T11:32:22;17.50;99.90
41262;DHT22;29629;52.532;13.352;2022-09-24T11:35:06;17.50;99.90
41262;DHT22;29629;52.532;13.352;2022-09-24T11:37:53;17.50;99.90
41262;DHT22;29629;52.532;13.352;2022-09-24T11:40:33;17.60;99.90
41262;DHT22;29629;52.532;13.352;2022-09-24T11:43:19;17.60;99.90
41262;DHT22;29629;52.532;13.352;2022-09-24T11:46:01;17.40;99.90
41262;DHT22;29629;52.532;13.352;2022-09-24T11:51:39;17.50;99.90
41262;DHT22;29629;52.532;13.352;2022-09-24T11:54:16;17.50;99.90
41262;DHT22;29629;52.532;13.352;2022-09-24T11:56:47;17.50;99.90
41262;DHT22;29629;52.532;13.352;2022-09-24T11:59:21;17.50;99.90
41262;DHT22;29629;52.532;13.352;2022-09-24T12:01:55;17.40;99.90
41262;DHT22;29629;52.532;13.352;2022-09-24T12:04:29;17.50;99.90
41262;DHT22;29629;52.532;13.352;2022-09-24T12:07:04;17.60;99.90
41262;DHT22;29629;52.532;13.352;2022-09-24T12:09:41;17.40;99.90
41262;DHT22;29629;52.532;13.352;2022-09-24T12:12:13;17.30;99.90
41262;DHT22;29629;52.532;13.352;2022-09-24T12:14:44;17.00;99.90
41262;DHT22;29629;52.532;13.352;2022-09-24T12:17:16;17.10;99.90
41262;DHT22;29629;52.532;13.352;2022-09-24T12:19:52;17.00;99.90
41262;DHT22;29629;52.532;13.352;2022-09-24T12:22:22;17.10;99.90
41262;DHT22;29629;52.532;13.352;2022-09-24T12:24:52;17.00;99.90
41262;DHT22;29629;52.532;13.352;2022-09-24T12:27:23;17.00;99.90
41262;DHT22;29629;52.532;13.352;2022-09-24T12:29:59;17.00;99.90
41262;DHT22;29629;52.532;13.352;2022-09-24T12:32:51;17.00;99.90
41262;DHT22;29629;52.532;13.352;2022-09-24T12:35:30;17.00;99.90
41262;DHT22;29629;52.532;13.352;2022-09-24T12:38:03;17.10;99.90
41262;DHT22;29629;52.532;13.352;2022-09-24T12:40:54;17.20;99.90
41262;DHT22;29629;52.532;13.352;2022-09-24T12:43:27;17.30;99.90
41262;DHT22;29629;52.532;13.352;2022-09-24T12:45:58;17.40;99.90
41262;DHT22;29629;52.532;13.352;2022-09-24T12:48:27;17.60;99.90
41262;DHT22;29629;52.532;13.352;2022-09-24T12:50:57;18.30;99.90
41262;DHT22;29629;52.532;13.352;2022-09-24T12:53:31;18.80;99.90
41262;DHT22;29629;52.532;13.352;2022-09-24T12:55:59;19.10;99.90
41262;DHT22;29629;52.532;13.352;2022-09-24T12:58:29;19.00;99.90
41262;DHT22;29629;52.532;13.352;2022-09-24T13:01:13;19.00;99.90
41262;DHT22;29629;52.532;13.352;2022-09-24T13:03:41;19.00;99.90
41262;DHT22;29629;52.532;13.352;2022-09-24T13:06:30;18.70;99.90
41262;DHT22;29629;52.532;13.352;2022-09-24T13:08:58;18.60;99.90
41262;DHT22;29629;52.532;13.352;2022-09-24T13:11:27;18.60;99.90
41262;DHT22;29629;52.532;13.352;2022-09-24T13:14:00;18.60;99.90
41262;DHT22;29629;52.532;13.352;2022-09-24T13:16:28;18.40;99.90
41262;DHT22;29629;52.532;13.352;2022-09-24T13:18:57;18.00;99.90
41262;DHT22;29629;52.532;13.352;2022-09-24T13:21:28;18.40;99.90
41262;DHT22;29629;52.532;13.352;2022-09-24T13:23:56;19.00;99.90
41262;DHT22;29629;52.532;13.352;2022-09-24T13:26:29;19.20;99.90
41262;DHT22;29629;52.532;13.352;2022-09-24T13:28:59;19.30;99.90
41262;DHT22;29629;52.532;13.352;2022-09-24T13:31:34;19.30;99.90
41262;DHT22;29629;52.532;13.352;2022-09-24T13:34:13;19.30;99.90
41262;DHT22;29629;52.532;13.352;2022-09-24T13:36:46;19.20;99.90
41262;DHT22;29629;52.532;13.352;2022-09-24T13:39:16;18.90;99.90
41262;DHT22;29629;52.532;13.352;2022-09-24T13:41:52;18.70;99.90
41262;DHT22;29629;52.532;13.352;2022-09-24T13:44:25;18.60;99.90
41262;DHT22;29629;52.532;13.352;2022-09-24T13:46:58;18.40;99.90
41262;DHT22;29629;52.532;13.352;2022-09-24T13:49:27;18.40;99.90
41262;DHT22;29629;52.532;13.352;2022-09-24T13:52:07;18.40;99.90
41262;DHT22;29629;52.532;13.352;2022-09-24T13:54:39;18.40;99.90
41262;DHT22;29629;52.532;13.352;2022-09-24T13:57:18;18.40;99.90
41262;DHT22;29629;52.532;13.352;2022-09-24T13:59:46;18.40;99.90
41262;DHT22;29629;52.532;13.352;2022-09-24T14:02:22;18.30;99.90
41262;DHT22;29629;52.532;13.352;2022-09-24T14:04:55;18.30;99.90
41262;DHT22;29629;52.532;13.352;2022-09-24T14:07:24;18.20;99.90
41262;DHT22;29629;52.532;13.352;2022-09-24T14:10:02;18.20;99.90
41262;DHT22;29629;52.532;13.352;2022-09-24T14:12:29;18.20;99.90
41262;DHT22;29629;52.532;13.352;2022-09-24T14:14:56;18.20;99.90
41262;DHT22;29629;52.532;13.352;2022-09-24T14:17:23;18.20;99.90
41262;DHT22;29629;52.532;13.352;2022-09-24T14:19:53;18.20;99.90
41262;DHT22;29629;52.532;13.352;2022-09-24T14:22:22;18.10;99.90
41262;DHT22;29629;52.532;13.352;2022-09-24T14:24:55;18.10;99.90
41262;DHT22;29629;52.532;13.352;2022-09-24T14:27:24;18.10;99.90
41262;DHT22;29629;52.532;13.352;2022-09-24T14:29:54;18.00;99.90
41262;DHT22;29629;52.532;13.352;2022-09-24T14:32:27;17.90;99.90
41262;DHT22;29629;52.532;13.352;2022-09-24T14:34:56;17.90;99.90
41262;DHT22;29629;52.532;13.352;2022-09-24T14:37:26;17.80;99.90
41262;DHT22;29629;52.532;13.352;2022-09-24T14:40:00;17.80;99.90
41262;DHT22;29629;52.532;13.352;2022-09-24T14:42:31;17.80;99.90
41262;DHT22;29629;52.532;13.352;2022-09-24T14:45:00;17.80;99.90
41262;DHT22;29629;52.532;13.352;2022-09-24T14:47:30;17.70;99.90
41262;DHT22;29629;52.532;13.352;2022-09-24T14:49:57;17.70;99.90
41262;DHT22;29629;52.532;13.352;2022-09-24T14:52:28;17.60;99.90
41262;DHT22;29629;52.532;13.352;2022-09-24T14:55:09;17.60;99.90
41262;DHT22;29629;52.532;13.352;2022-09-24T14:57:37;17.50;99.90
41262;DHT22;29629;52.532;13.352;2022-09-24T15:00:19;17.50;99.90
41262;DHT22;29629;52.532;13.352;2022-09-24T15:02:48;17.50;99.90
41262;DHT22;29629;52.532;13.352;2022-09-24T15:05:16;17.50;99.90
41262;DHT22;29629;52.532;13.352;2022-09-24T15:07:43;17.40;99.90
41262;DHT22;29629;52.532;13.352;2022-09-24T15:10:19;17.40;99.90
41262;DHT22;29629;52.532;13.352;2022-09-24T15:12:49;17.30;99.90
41262;DHT22;29629;52.532;13.352;2022-09-24T15:15:28;17.20;99.90
41262;DHT22;29629;52.532;13.352;2022-09-24T15:17:56;17.20;99.90
41262;DHT22;29629;52.532;13.352;2022-09-24T15:20:23;17.20;99.90
41262;DHT22;29629;52.532;13.352;2022-09-24T15:22:50;17.10;99.90
41262;DHT22;29629;52.532;13.352;2022-09-24T15:25:18;17.10;99.90
41262;DHT22;29629;52.532;13.352;2022-09-24T15:27:45;17.10;99.90
41262;DHT22;29629;52.532;13.352;2022-09-24T15:30:18;17.10;99.90
41262;DHT22;29629;52.532;13.352;2022-09-24T15:32:45;17.00;99.90
41262;DHT22;29629;52.532;13.352;2022-09-24T15:35:15;17.10;99.90
41262;DHT22;29629;52.532;13.352;2022-09-24T15:37:42;17.00;99.90
41262;DHT22;29629;52.532;13.352;2022-09-24T15:40:17;17.00;99.90
41262;DHT22;29629;52.532;13.352;2022-09-24T15:42:48;16.90;99.90